sensor_id;sensor_type;location;lat;lon;timestamp;temperature;humidity
83289;DHT22;73193;50.866;5.420;2023-12-20T00:00:59;9.50;67.10
83289;DHT22;73193;50.866;5.420;2023-12-20T00:02:30;9.40;66.90
83289;DHT22;73193;50.866;5.420;2023-12-20T00:04:01;9.30;67.50
83289;DHT22;73193;50.866;5.420;2023-12-20T00:05:32;9.30;67.20
83289;DHT22;73193;50.866;5.420;2023-12-20T00:07:03;9.20;67.10
83289;DHT22;73193;50.866;5.420;2023-12-20T00:08:34;9.20;67.10
83289;DHT22;73193;50.866;5.420;2023-12-20T00:10:05;9.20;66.90
83289;DHT22;73193;50.866;5.420;2023-12-20T00:11:36;9.10;66.90
83289;DHT22;73193;50.866;5.420;2023-12-20T00:13:07;9.10;66.90
83289;DHT22;73193;50.866;5.420;2023-12-20T00:14:38;9.10;66.80
83289;DHT22;73193;50.866;5.420;2023-12-20T00:16:09;9.10;66.70
83289;DHT22;73193;50.866;5.420;2023-12-20T00:17:40;9.00;66.70
83289;DHT22;73193;50.866;5.420;2023-12-20T00:19:10;9.00;67.00
83289;DHT22;73193;50.866;5.420;2023-12-20T00:20:41;8.90;67.20
83289;DHT22;73193;50.866;5.420;2023-12-20T00:22:12;8.90;66.60
83289;DHT22;73193;50.866;5.420;2023-12-20T00:23:43;8.90;66.50
83289;DHT22;73193;50.866;5.420;2023-12-20T00:25:13;8.80;66.60
83289;DHT22;73193;50.866;5.420;2023-12-20T00:26:44;8.80;66.50
83289;DHT22;73193;50.866;5.420;2023-12-20T00:28:15;8.70;66.70
83289;DHT22;73193;50.866;5.420;2023-12-20T00:29:45;8.80;67.00
83289;DHT22;73193;50.866;5.420;2023-12-20T00:31:20;8.70;66.80
83289;DHT22;73193;50.866;5.420;2023-12-20T00:32:50;8.70;67.40
83289;DHT22;73193;50.866;5.420;2023-12-20T00:34:21;8.80;66.90
83289;DHT22;73193;50.866;5.420;2023-12-20T00:35:52;8.80;66.90
83289;DHT22;73193;50.866;5.420;2023-12-20T00:37:22;8.90;66.80
83289;DHT22;73193;50.866;5.420;2023-12-20T00:38:54;8.90;66.40
83289;DHT22;73193;50.866;5.420;2023-12-20T00:40:25;8.90;66.20
83289;DHT22;73193;50.866;5.420;2023-12-20T00:41:55;8.80;66.20
83289;DHT22;73193;50.866;5.420;2023-12-20T00:43:26;8.70;66.50
83289;DHT22;73193;50.866;5.420;2023-12-20T00:44:58;8.60;66.40
83289;DHT22;73193;50.866;5.420;2023-12-20T00:46:29;8.70;66.10
83289;DHT22;73193;50.866;5.420;2023-12-20T00:47:59;8.70;66.20
83289;DHT22;73193;50.866;5.420;2023-12-20T00:49:30;8.50;66.90
83289;DHT22;73193;50.866;5.420;2023-12-20T00:51:00;8.40;66.80
83289;DHT22;73193;50.866;5.420;2023-12-20T00:52:31;8.50;66.70
83289;DHT22;73193;50.866;5.420;2023-12-20T00:54:02;8.50;66.50
83289;DHT22;73193;50.866;5.420;2023-12-20T00:55:32;8.50;66.40
83289;DHT22;73193;50.866;5.420;2023-12-20T00:57:03;8.50;66.70
83289;DHT22;73193;50.866;5.420;2023-12-20T00:58:34;8.50;66.80
83289;DHT22;73193;50.866;5.420;2023-12-20T01:00:05;8.50;66.80
83289;DHT22;73193;50.866;5.420;2023-12-20T01:01:36;8.50;66.90
83289;DHT22;73193;50.866;5.420;2023-12-20T01:03:07;8.50;67.00
83289;DHT22;73193;50.866;5.420;2023-12-20T01:04:37;8.60;66.60
83289;DHT22;73193;50.866;5.420;2023-12-20T01:06:08;8.60;66.30
83289;DHT22;73193;50.866;5.420;2023-12-20T01:07:39;8.60;66.30
83289;DHT22;73193;50.866;5.420;2023-12-20T01:09:09;8.40;67.00
83289;DHT22;73193;50.866;5.420;2023-12-20T01:10:40;8.40;66.70
83289;DHT22;73193;50.866;5.420;2023-12-20T01:12:11;8.40;67.10
83289;DHT22;73193;50.866;5.420;2023-12-20T01:13:41;8.30;67.00
83289;DHT22;73193;50.866;5.420;2023-12-20T01:15:12;8.40;67.00
83289;DHT22;73193;50.866;5.420;2023-12-20T01:16:43;8.30;67.00
83289;DHT22;73193;50.866;5.420;2023-12-20T01:18:14;8.20;67.50
83289;DHT22;73193;50.866;5.420;2023-12-20T01:19:44;8.20;67.60
83289;DHT22;73193;50.866;5.420;2023-12-20T01:21:15;8.20;67.30
83289;DHT22;73193;50.866;5.420;2023-12-20T01:22:46;8.10;67.80
83289;DHT22;73193;50.866;5.420;2023-12-20T01:24:16;8.10;67.70
83289;DHT22;73193;50.866;5.420;2023-12-20T01:25:48;8.20;67.60
83289;DHT22;73193;50.866;5.420;2023-12-20T01:27:18;8.30;67.50
83289;DHT22;73193;50.866;5.420;2023-12-20T01:28:49;8.40;66.90
83289;DHT22;73193;50.866;5.420;2023-12-20T01:30:20;8.40;67.00
83289;DHT22;73193;50.866;5.420;2023-12-20T01:31:50;8.30;67.20
83289;DHT22;73193;50.866;5.420;2023-12-20T01:33:21;8.50;66.90
83289;DHT22;73193;50.866;5.420;2023-12-20T01:34:52;8.60;66.50
83289;DHT22;73193;50.866;5.420;2023-12-20T01:36:22;8.60;66.70
83289;DHT22;73193;50.866;5.420;2023-12-20T01:37:53;8.50;67.00
83289;DHT22;73193;50.866;5.420;2023-12-20T01:39:27;8.50;67.00
83289;DHT22;73193;50.866;5.420;2023-12-20T01:40:58;8.40;67.00
83289;DHT22;73193;50.866;5.420;2023-12-20T01:42:28;8.40;66.70
83289;DHT22;73193;50.866;5.420;2023-12-20T01:43:59;8.40;66.80
83289;DHT22;73193;50.866;5.420;2023-12-20T01:45:30;8.40;66.50
83289;DHT22;73193;50.866;5.420;2023-12-20T01:47:01;8.30;66.90
83289;DHT22;73193;50.866;5.420;2023-12-20T01:48:32;8.00;67.70
83289;DHT22;73193;50.866;5.420;2023-12-20T01:50:04;7.80;67.80
83289;DHT22;73193;50.866;5.420;2023-12-20T01:51:35;7.90;68.10
83289;DHT22;73193;50.866;5.420;2023-12-20T01:53:08;8.00;67.40
83289;DHT22;73193;50.866;5.420;2023-12-20T01:54:40;7.70;68.20
83289;DHT22;73193;50.866;5.420;2023-12-20T01:56:12;7.80;68.30
83289;DHT22;73193;50.866;5.420;2023-12-20T01:57:43;7.90;67.50
83289;DHT22;73193;50.866;5.420;2023-12-20T01:59:15;7.80;68.00
83289;DHT22;73193;50.866;5.420;2023-12-20T02:00:45;7.90;67.60
83289;DHT22;73193;50.866;5.420;2023-12-20T02:02:17;7.80;67.80
83289;DHT22;73193;50.866;5.420;2023-12-20T02:03:47;7.80;67.90
83289;DHT22;73193;50.866;5.420;2023-12-20T02:05:18;8.00;67.50
83289;DHT22;73193;50.866;5.420;2023-12-20T02:06:52;7.90;67.40
83289;DHT22;73193;50.866;5.420;2023-12-20T02:08:23;7.90;67.30
83289;DHT22;73193;50.866;5.420;2023-12-20T02:09:53;7.80;67.90
83289;DHT22;73193;50.866;5.420;2023-12-20T02:11:25;7.50;68.80
83289;DHT22;73193;50.866;5.420;2023-12-20T02:12:56;7.50;68.50
83289;DHT22;73193;50.866;5.420;2023-12-20T02:14:26;7.50;68.50
83289;DHT22;73193;50.866;5.420;2023-12-20T02:15:57;7.60;68.20
83289;DHT22;73193;50.866;5.420;2023-12-20T02:17:28;7.60;68.40
83289;DHT22;73193;50.866;5.420;2023-12-20T02:19:00;7.70;68.00
83289;DHT22;73193;50.866;5.420;2023-12-20T02:20:30;7.80;67.80
83289;DHT22;73193;50.866;5.420;2023-12-20T02:22:11;7.60;68.30
83289;DHT22;73193;50.866;5.420;2023-12-20T02:23:42;7.60;68.20
83289;DHT22;73193;50.866;5.420;2023-12-20T02:25:12;7.50;68.50
83289;DHT22;73193;50.866;5.420;2023-12-20T02:26:43;7.60;67.90
83289;DHT22;73193;50.866;5.420;2023-12-20T02:28:14;7.40;68.70
83289;DHT22;73193;50.866;5.420;2023-12-20T02:29:47;7.50;68.30
83289;DHT22;73193;50.866;5.420;2023-12-20T02:31:21;7.60;68.00
83289;DHT22;73193;50.866;5.420;2023-12-20T02:32:53;7.50;67.90
83289;DHT22;73193;50.866;5.420;2023-12-20T02:34:24;7.50;68.00
83289;DHT22;73193;50.866;5.420;2023-12-20T02:35:54;7.50;68.50
83289;DHT22;73193;50.866;5.420;2023-12-20T02:37:25;7.50;68.10
83289;DHT22;73193;50.866;5.420;2023-12-20T02:38:56;7.50;68.10
83289;DHT22;73193;50.866;5.420;2023-12-20T02:40:26;7.40;68.10
83289;DHT22;73193;50.866;5.420;2023-12-20T02:41:57;7.40;68.40
83289;DHT22;73193;50.866;5.420;2023-12-20T02:43:27;7.20;68.70
83289;DHT22;73193;50.866;5.420;2023-12-20T02:44:58;7.40;68.30
83289;DHT22;73193;50.866;5.420;2023-12-20T02:46:29;7.40;68.40
83289;DHT22;73193;50.866;5.420;2023-12-20T02:47:59;7.50;67.70
83289;DHT22;73193;50.866;5.420;2023-12-20T02:49:30;7.50;67.50
83289;DHT22;73193;50.866;5.420;2023-12-20T02:51:01;7.40;67.70
83289;DHT22;73193;50.866;5.420;2023-12-20T02:52:31;7.20;68.40
83289;DHT22;73193;50.866;5.420;2023-12-20T02:54:02;7.20;68.60
83289;DHT22;73193;50.866;5.420;2023-12-20T02:55:33;7.20;68.20
83289;DHT22;73193;50.866;5.420;2023-12-20T02:57:03;7.30;68.10
83289;DHT22;73193;50.866;5.420;2023-12-20T02:58:34;7.40;67.70
83289;DHT22;73193;50.866;5.420;2023-12-20T03:00:06;7.20;68.20
83289;DHT22;73193;50.866;5.420;2023-12-20T03:01:42;7.20;68.30
83289;DHT22;73193;50.866;5.420;2023-12-20T03:03:13;7.30;67.80
83289;DHT22;73193;50.866;5.420;2023-12-20T03:04:44;7.00;69.20
83289;DHT22;73193;50.866;5.420;2023-12-20T03:06:18;7.00;69.10
83289;DHT22;73193;50.866;5.420;2023-12-20T03:07:49;7.00;69.00
83289;DHT22;73193;50.866;5.420;2023-12-20T03:09:20;7.00;68.60
83289;DHT22;73193;50.866;5.420;2023-12-20T03:10:50;6.90;69.00
83289;DHT22;73193;50.866;5.420;2023-12-20T03:12:21;7.00;69.00
83289;DHT22;73193;50.866;5.420;2023-12-20T03:13:51;7.10;68.50
83289;DHT22;73193;50.866;5.420;2023-12-20T03:15:22;7.00;68.80
83289;DHT22;73193;50.866;5.420;2023-12-20T03:16:53;6.90;69.20
83289;DHT22;73193;50.866;5.420;2023-12-20T03:18:23;6.80;69.90
83289;DHT22;73193;50.866;5.420;2023-12-20T03:19:54;6.90;70.00
83289;DHT22;73193;50.866;5.420;2023-12-20T03:21:25;7.00;69.30
83289;DHT22;73193;50.866;5.420;2023-12-20T03:22:55;7.00;69.60
83289;DHT22;73193;50.866;5.420;2023-12-20T03:24:26;6.80;69.90
83289;DHT22;73193;50.866;5.420;2023-12-20T03:25:57;7.00;69.90
83289;DHT22;73193;50.866;5.420;2023-12-20T03:27:28;7.00;69.40
83289;DHT22;73193;50.866;5.420;2023-12-20T03:28:58;7.20;69.50
83289;DHT22;73193;50.866;5.420;2023-12-20T03:30:29;7.30;68.70
83289;DHT22;73193;50.866;5.420;2023-12-20T03:32:00;7.30;68.90
83289;DHT22;73193;50.866;5.420;2023-12-20T03:33:30;7.20;69.00
83289;DHT22;73193;50.866;5.420;2023-12-20T03:35:01;7.30;69.30
83289;DHT22;73193;50.866;5.420;2023-12-20T03:36:32;7.40;68.60
83289;DHT22;73193;50.866;5.420;2023-12-20T03:38:02;7.20;69.40
83289;DHT22;73193;50.866;5.420;2023-12-20T03:39:33;7.40;69.10
83289;DHT22;73193;50.866;5.420;2023-12-20T03:41:04;7.40;68.80
83289;DHT22;73193;50.866;5.420;2023-12-20T03:42:35;7.50;68.60
83289;DHT22;73193;50.866;5.420;2023-12-20T03:44:05;7.50;68.20
83289;DHT22;73193;50.866;5.420;2023-12-20T03:45:36;7.10;69.90
83289;DHT22;73193;50.866;5.420;2023-12-20T03:47:07;7.30;69.10
83289;DHT22;73193;50.866;5.420;2023-12-20T03:48:38;7.50;68.60
83289;DHT22;73193;50.866;5.420;2023-12-20T03:50:08;7.60;68.10
83289;DHT22;73193;50.866;5.420;2023-12-20T03:51:39;7.50;68.40
83289;DHT22;73193;50.866;5.420;2023-12-20T03:53:10;7.40;69.10
83289;DHT22;73193;50.866;5.420;2023-12-20T03:54:40;7.50;68.20
83289;DHT22;73193;50.866;5.420;2023-12-20T03:56:14;7.20;69.50
83289;DHT22;73193;50.866;5.420;2023-12-20T03:57:44;7.30;69.60
83289;DHT22;73193;50.866;5.420;2023-12-20T03:59:15;7.50;68.90
83289;DHT22;73193;50.866;5.420;2023-12-20T04:00:46;7.50;68.40
83289;DHT22;73193;50.866;5.420;2023-12-20T04:02:17;7.40;68.70
83289;DHT22;73193;50.866;5.420;2023-12-20T04:03:48;7.20;69.00
83289;DHT22;73193;50.866;5.420;2023-12-20T04:05:19;7.00;69.90
83289;DHT22;73193;50.866;5.420;2023-12-20T04:06:50;7.40;69.50
83289;DHT22;73193;50.866;5.420;2023-12-20T04:08:20;7.50;69.00
83289;DHT22;73193;50.866;5.420;2023-12-20T04:09:51;7.60;68.70
83289;DHT22;73193;50.866;5.420;2023-12-20T04:11:22;7.50;69.00
83289;DHT22;73193;50.866;5.420;2023-12-20T04:12:53;7.70;68.30
83289;DHT22;73193;50.866;5.420;2023-12-20T04:14:24;7.50;68.10
83289;DHT22;73193;50.866;5.420;2023-12-20T04:15:55;7.20;69.80
83289;DHT22;73193;50.866;5.420;2023-12-20T04:17:26;7.40;69.00
83289;DHT22;73193;50.866;5.420;2023-12-20T04:18:56;7.40;69.30
83289;DHT22;73193;50.866;5.420;2023-12-20T04:20:27;7.50;68.90
83289;DHT22;73193;50.866;5.420;2023-12-20T04:21:57;7.50;69.10
83289;DHT22;73193;50.866;5.420;2023-12-20T04:23:28;7.60;69.00
83289;DHT22;73193;50.866;5.420;2023-12-20T04:24:59;7.70;68.60
83289;DHT22;73193;50.866;5.420;2023-12-20T04:26:29;7.60;68.70
83289;DHT22;73193;50.866;5.420;2023-12-20T04:28:00;7.50;69.30
83289;DHT22;73193;50.866;5.420;2023-12-20T04:29:31;7.70;68.90
83289;DHT22;73193;50.866;5.420;2023-12-20T04:31:01;7.50;69.00
83289;DHT22;73193;50.866;5.420;2023-12-20T04:32:32;7.30;70.10
83289;DHT22;73193;50.866;5.420;2023-12-20T04:34:02;7.50;69.00
83289;DHT22;73193;50.866;5.420;2023-12-20T04:35:33;7.60;69.00
83289;DHT22;73193;50.866;5.420;2023-12-20T04:37:04;7.90;68.30
83289;DHT22;73193;50.866;5.420;2023-12-20T04:38:34;7.80;68.50
83289;DHT22;73193;50.866;5.420;2023-12-20T04:40:05;7.60;68.50
83289;DHT22;73193;50.866;5.420;2023-12-20T04:41:36;7.50;69.20
83289;DHT22;73193;50.866;5.420;2023-12-20T04:43:07;7.50;69.20
83289;DHT22;73193;50.866;5.420;2023-12-20T04:44:39;7.80;68.60
83289;DHT22;73193;50.866;5.420;2023-12-20T04:46:09;7.80;67.90
83289;DHT22;73193;50.866;5.420;2023-12-20T04:47:41;7.80;68.20
83289;DHT22;73193;50.866;5.420;2023-12-20T04:49:12;7.60;68.90
83289;DHT22;73193;50.866;5.420;2023-12-20T04:50:43;7.60;68.50
83289;DHT22;73193;50.866;5.420;2023-12-20T04:52:14;7.50;69.20
83289;DHT22;73193;50.866;5.420;2023-12-20T04:53:45;7.60;69.00
83289;DHT22;73193;50.866;5.420;2023-12-20T04:55:15;7.70;68.40
83289;DHT22;73193;50.866;5.420;2023-12-20T04:56:46;7.60;68.90
83289;DHT22;73193;50.866;5.420;2023-12-20T04:58:17;7.60;68.20
83289;DHT22;73193;50.866;5.420;2023-12-20T04:59:48;7.30;69.50
83289;DHT22;73193;50.866;5.420;2023-12-20T05:01:19;7.50;69.20
83289;DHT22;73193;50.866;5.420;2023-12-20T05:02:50;7.70;68.50
83289;DHT22;73193;50.866;5.420;2023-12-20T05:04:20;7.80;68.20
83289;DHT22;73193;50.866;5.420;2023-12-20T05:05:51;7.70;68.00
83289;DHT22;73193;50.866;5.420;2023-12-20T05:07:22;7.50;68.50
83289;DHT22;73193;50.866;5.420;2023-12-20T05:08:52;7.70;68.10
83289;DHT22;73193;50.866;5.420;2023-12-20T05:10:23;7.40;68.70
83289;DHT22;73193;50.866;5.420;2023-12-20T05:11:53;7.30;69.30
83289;DHT22;73193;50.866;5.420;2023-12-20T05:13:24;7.50;68.60
83289;DHT22;73193;50.866;5.420;2023-12-20T05:14:55;7.60;68.10
83289;DHT22;73193;50.866;5.420;2023-12-20T05:16:25;7.60;68.30
83289;DHT22;73193;50.866;5.420;2023-12-20T05:17:56;7.50;68.40
83289;DHT22;73193;50.866;5.420;2023-12-20T05:19:27;7.40;68.50
83289;DHT22;73193;50.866;5.420;2023-12-20T05:20:58;7.50;68.70
83289;DHT22;73193;50.866;5.420;2023-12-20T05:22:29;7.50;68.20
83289;DHT22;73193;50.866;5.420;2023-12-20T05:24:00;7.50;68.00
83289;DHT22;73193;50.866;5.420;2023-12-20T05:25:31;7.30;68.60
83289;DHT22;73193;50.866;5.420;2023-12-20T05:27:01;7.40;68.40
83289;DHT22;73193;50.866;5.420;2023-12-20T05:28:32;7.00;69.50
83289;DHT22;73193;50.866;5.420;2023-12-20T05:30:03;7.20;69.50
83289;DHT22;73193;50.866;5.420;2023-12-20T05:31:34;7.40;68.80
83289;DHT22;73193;50.866;5.420;2023-12-20T05:33:05;7.50;68.10
83289;DHT22;73193;50.866;5.420;2023-12-20T05:34:36;7.20;69.00
83289;DHT22;73193;50.866;5.420;2023-12-20T05:36:07;7.20;68.60
83289;DHT22;73193;50.866;5.420;2023-12-20T05:37:41;7.10;69.20
83289;DHT22;73193;50.866;5.420;2023-12-20T05:39:12;7.00;69.40
83289;DHT22;73193;50.866;5.420;2023-12-20T05:40:43;7.00;69.40
83289;DHT22;73193;50.866;5.420;2023-12-20T05:42:14;7.00;69.30
83289;DHT22;73193;50.866;5.420;2023-12-20T05:43:44;7.20;68.80
83289;DHT22;73193;50.866;5.420;2023-12-20T05:45:15;7.30;68.60
83289;DHT22;73193;50.866;5.420;2023-12-20T05:46:46;7.40;68.00
83289;DHT22;73193;50.866;5.420;2023-12-20T05:48:16;7.20;68.50
83289;DHT22;73193;50.866;5.420;2023-12-20T05:49:47;7.00;69.10
83289;DHT22;73193;50.866;5.420;2023-12-20T05:51:18;7.20;68.70
83289;DHT22;73193;50.866;5.420;2023-12-20T05:52:49;7.20;68.50
83289;DHT22;73193;50.866;5.420;2023-12-20T05:54:19;7.30;68.00
83289;DHT22;73193;50.866;5.420;2023-12-20T05:55:50;7.10;68.30
83289;DHT22;73193;50.866;5.420;2023-12-20T05:57:21;6.90;69.10
83289;DHT22;73193;50.866;5.420;2023-12-20T05:58:51;6.90;69.20
83289;DHT22;73193;50.866;5.420;2023-12-20T06:00:22;7.00;68.60
83289;DHT22;73193;50.866;5.420;2023-12-20T06:01:53;7.00;68.50
83289;DHT22;73193;50.866;5.420;2023-12-20T06:03:24;7.00;68.40
83289;DHT22;73193;50.866;5.420;2023-12-20T06:04:55;7.20;68.20
83289;DHT22;73193;50.866;5.420;2023-12-20T06:06:25;7.20;67.60
83289;DHT22;73193;50.866;5.420;2023-12-20T06:07:56;7.00;68.20
83289;DHT22;73193;50.866;5.420;2023-12-20T06:09:31;6.90;68.50
83289;DHT22;73193;50.866;5.420;2023-12-20T06:11:02;6.80;69.30
83289;DHT22;73193;50.866;5.420;2023-12-20T06:12:33;6.90;68.60
83289;DHT22;73193;50.866;5.420;2023-12-20T06:14:06;7.00;68.40
83289;DHT22;73193;50.866;5.420;2023-12-20T06:15:36;7.00;67.90
83289;DHT22;73193;50.866;5.420;2023-12-20T06:17:07;7.00;68.50
83289;DHT22;73193;50.866;5.420;2023-12-20T06:18:38;6.70;69.00
83289;DHT22;73193;50.866;5.420;2023-12-20T06:20:09;6.70;69.50
83289;DHT22;73193;50.866;5.420;2023-12-20T06:21:40;6.80;69.10
83289;DHT22;73193;50.866;5.420;2023-12-20T06:23:10;6.90;68.20
83289;DHT22;73193;50.866;5.420;2023-12-20T06:24:41;6.90;68.30
83289;DHT22;73193;50.866;5.420;2023-12-20T06:26:12;6.70;69.00
83289;DHT22;73193;50.866;5.420;2023-12-20T06:27:43;6.70;69.30
83289;DHT22;73193;50.866;5.420;2023-12-20T06:29:13;6.80;68.60
83289;DHT22;73193;50.866;5.420;2023-12-20T06:30:44;6.80;68.80
83289;DHT22;73193;50.866;5.420;2023-12-20T06:32:16;6.70;69.30
83289;DHT22;73193;50.866;5.420;2023-12-20T06:33:46;6.80;69.10
83289;DHT22;73193;50.866;5.420;2023-12-20T06:35:17;6.90;68.30
83289;DHT22;73193;50.866;5.420;2023-12-20T06:36:48;6.90;68.80
83289;DHT22;73193;50.866;5.420;2023-12-20T06:38:19;6.70;68.90
83289;DHT22;73193;50.866;5.420;2023-12-20T06:39:49;6.70;69.10
83289;DHT22;73193;50.866;5.420;2023-12-20T06:41:20;6.90;68.90
83289;DHT22;73193;50.866;5.420;2023-12-20T06:42:51;6.90;68.80
83289;DHT22;73193;50.866;5.420;2023-12-20T06:44:22;6.90;68.60
83289;DHT22;73193;50.866;5.420;2023-12-20T06:45:52;6.80;69.10
83289;DHT22;73193;50.866;5.420;2023-12-20T06:47:23;6.70;70.30
83289;DHT22;73193;50.866;5.420;2023-12-20T06:48:54;6.90;69.40
83289;DHT22;73193;50.866;5.420;2023-12-20T06:50:24;6.80;69.10
83289;DHT22;73193;50.866;5.420;2023-12-20T06:51:55;6.80;69.60
83289;DHT22;73193;50.866;5.420;2023-12-20T06:53:26;7.00;68.80
83289;DHT22;73193;50.866;5.420;2023-12-20T06:54:57;7.10;69.00
83289;DHT22;73193;50.866;5.420;2023-12-20T06:56:27;7.20;68.40
83289;DHT22;73193;50.866;5.420;2023-12-20T06:57:58;6.90;69.20
83289;DHT22;73193;50.866;5.420;2023-12-20T06:59:29;7.00;69.00
83289;DHT22;73193;50.866;5.420;2023-12-20T07:01:00;6.80;69.40
83289;DHT22;73193;50.866;5.420;2023-12-20T07:02:31;7.00;69.50
83289;DHT22;73193;50.866;5.420;2023-12-20T07:04:02;7.20;68.70
83289;DHT22;73193;50.866;5.420;2023-12-20T07:05:32;7.20;68.70
83289;DHT22;73193;50.866;5.420;2023-12-20T07:07:03;7.20;68.70
83289;DHT22;73193;50.866;5.420;2023-12-20T07:08:34;7.00;68.70
83289;DHT22;73193;50.866;5.420;2023-12-20T07:10:05;7.20;68.90
83289;DHT22;73193;50.866;5.420;2023-12-20T07:11:38;7.30;68.40
83289;DHT22;73193;50.866;5.420;2023-12-20T07:13:08;7.20;68.50
83289;DHT22;73193;50.866;5.420;2023-12-20T07:14:39;7.20;68.50
83289;DHT22;73193;50.866;5.420;2023-12-20T07:16:10;7.40;68.20
83289;DHT22;73193;50.866;5.420;2023-12-20T07:17:40;7.50;68.00
83289;DHT22;73193;50.866;5.420;2023-12-20T07:19:11;7.30;68.00
83289;DHT22;73193;50.866;5.420;2023-12-20T07:20:42;7.20;68.20
83289;DHT22;73193;50.866;5.420;2023-12-20T07:22:13;7.20;68.20
83289;DHT22;73193;50.866;5.420;2023-12-20T07:23:44;7.40;68.00
83289;DHT22;73193;50.866;5.420;2023-12-20T07:25:14;7.30;67.80
83289;DHT22;73193;50.866;5.420;2023-12-20T07:26:45;7.20;67.60
83289;DHT22;73193;50.866;5.420;2023-12-20T07:28:16;7.00;68.20
83289;DHT22;73193;50.866;5.420;2023-12-20T07:29:46;7.00;68.70
83289;DHT22;73193;50.866;5.420;2023-12-20T07:31:17;6.90;69.00
83289;DHT22;73193;50.866;5.420;2023-12-20T07:32:48;6.80;69.30
83289;DHT22;73193;50.866;5.420;2023-12-20T07:34:19;6.70;69.30
83289;DHT22;73193;50.866;5.420;2023-12-20T07:35:50;6.90;69.10
83289;DHT22;73193;50.866;5.420;2023-12-20T07:37:22;6.90;68.80
83289;DHT22;73193;50.866;5.420;2023-12-20T07:38:52;7.00;68.50
83289;DHT22;73193;50.866;5.420;2023-12-20T07:40:23;7.10;68.20
83289;DHT22;73193;50.866;5.420;2023-12-20T07:41:54;6.90;68.80
83289;DHT22;73193;50.866;5.420;2023-12-20T07:43:25;6.80;69.10
83289;DHT22;73193;50.866;5.420;2023-12-20T07:44:55;6.90;68.60
83289;DHT22;73193;50.866;5.420;2023-12-20T07:46:26;6.80;69.00
83289;DHT22;73193;50.866;5.420;2023-12-20T07:47:57;6.70;69.30
83289;DHT22;73193;50.866;5.420;2023-12-20T07:49:28;6.80;68.90
83289;DHT22;73193;50.866;5.420;2023-12-20T07:50:58;6.60;69.30
83289;DHT22;73193;50.866;5.420;2023-12-20T07:52:29;6.70;69.40
83289;DHT22;73193;50.866;5.420;2023-12-20T07:54:00;6.50;70.00
83289;DHT22;73193;50.866;5.420;2023-12-20T07:55:31;6.70;69.00
83289;DHT22;73193;50.866;5.420;2023-12-20T07:57:01;6.90;68.80
83289;DHT22;73193;50.866;5.420;2023-12-20T07:58:32;6.90;68.60
83289;DHT22;73193;50.866;5.420;2023-12-20T08:00:03;7.00;68.20
83289;DHT22;73193;50.866;5.420;2023-12-20T08:01:34;7.00;68.30
83289;DHT22;73193;50.866;5.420;2023-12-20T08:03:05;6.80;68.60
83289;DHT22;73193;50.866;5.420;2023-12-20T08:04:36;6.90;68.50
83289;DHT22;73193;50.866;5.420;2023-12-20T08:06:06;6.90;68.60
83289;DHT22;73193;50.866;5.420;2023-12-20T08:07:37;7.00;68.40
83289;DHT22;73193;50.866;5.420;2023-12-20T08:09:08;6.80;68.90
83289;DHT22;73193;50.866;5.420;2023-12-20T08:10:38;7.00;68.00
83289;DHT22;73193;50.866;5.420;2023-12-20T08:12:09;6.90;68.40
83289;DHT22;73193;50.866;5.420;2023-12-20T08:13:40;7.00;68.10
83289;DHT22;73193;50.866;5.420;2023-12-20T08:15:10;6.90;68.30
83289;DHT22;73193;50.866;5.420;2023-12-20T08:16:41;7.00;68.00
83289;DHT22;73193;50.866;5.420;2023-12-20T08:18:12;6.70;68.80
83289;DHT22;73193;50.866;5.420;2023-12-20T08:19:42;6.80;68.60
83289;DHT22;73193;50.866;5.420;2023-12-20T08:21:13;6.90;68.00
83289;DHT22;73193;50.866;5.420;2023-12-20T08:22:44;6.70;68.70
83289;DHT22;73193;50.866;5.420;2023-12-20T08:24:14;6.70;68.90
83289;DHT22;73193;50.866;5.420;2023-12-20T08:25:45;6.90;68.50
83289;DHT22;73193;50.866;5.420;2023-12-20T08:27:16;6.80;68.60
83289;DHT22;73193;50.866;5.420;2023-12-20T08:28:47;6.80;68.40
83289;DHT22;73193;50.866;5.420;2023-12-20T08:30:17;6.80;68.20
83289;DHT22;73193;50.866;5.420;2023-12-20T08:31:54;6.60;68.80
83289;DHT22;73193;50.866;5.420;2023-12-20T08:33:25;6.60;69.30
83289;DHT22;73193;50.866;5.420;2023-12-20T08:34:56;6.80;68.70
83289;DHT22;73193;50.866;5.420;2023-12-20T08:36:26;7.00;68.30
83289;DHT22;73193;50.866;5.420;2023-12-20T08:37:57;7.00;67.70
83289;DHT22;73193;50.866;5.420;2023-12-20T08:39:27;6.80;68.70
83289;DHT22;73193;50.866;5.420;2023-12-20T08:41:00;6.80;68.90
83289;DHT22;73193;50.866;5.420;2023-12-20T08:42:31;7.00;68.10
83289;DHT22;73193;50.866;5.420;2023-12-20T08:44:03;6.80;68.60
83289;DHT22;73193;50.866;5.420;2023-12-20T08:45:34;7.00;68.00
83289;DHT22;73193;50.866;5.420;2023-12-20T08:47:05;7.00;68.50
83289;DHT22;73193;50.866;5.420;2023-12-20T08:48:36;7.00;68.10
83289;DHT22;73193;50.866;5.420;2023-12-20T08:50:07;7.20;68.00
83289;DHT22;73193;50.866;5.420;2023-12-20T08:51:38;7.00;68.30
83289;DHT22;73193;50.866;5.420;2023-12-20T08:53:11;7.00;68.10
83289;DHT22;73193;50.866;5.420;2023-12-20T08:54:42;6.90;69.00
83289;DHT22;73193;50.866;5.420;2023-12-20T08:56:12;7.10;68.50
83289;DHT22;73193;50.866;5.420;2023-12-20T08:57:43;7.20;67.80
83289;DHT22;73193;50.866;5.420;2023-12-20T08:59:14;7.40;68.00
83289;DHT22;73193;50.866;5.420;2023-12-20T09:00:45;7.40;67.60
83289;DHT22;73193;50.866;5.420;2023-12-20T09:02:16;7.50;66.90
83289;DHT22;73193;50.866;5.420;2023-12-20T09:03:47;7.50;67.70
83289;DHT22;73193;50.866;5.420;2023-12-20T09:05:18;7.60;67.30
83289;DHT22;73193;50.866;5.420;2023-12-20T09:06:48;7.50;67.20
83289;DHT22;73193;50.866;5.420;2023-12-20T09:08:19;7.70;67.20
83289;DHT22;73193;50.866;5.420;2023-12-20T09:09:50;7.60;66.90
83289;DHT22;73193;50.866;5.420;2023-12-20T09:11:20;7.40;67.00
83289;DHT22;73193;50.866;5.420;2023-12-20T09:12:52;7.50;68.30
83289;DHT22;73193;50.866;5.420;2023-12-20T09:14:27;7.60;67.30
83289;DHT22;73193;50.866;5.420;2023-12-20T09:15:58;7.60;67.70
83289;DHT22;73193;50.866;5.420;2023-12-20T09:17:28;7.70;66.90
83289;DHT22;73193;50.866;5.420;2023-12-20T09:18:59;7.60;66.50
83289;DHT22;73193;50.866;5.420;2023-12-20T09:20:30;7.50;67.30
83289;DHT22;73193;50.866;5.420;2023-12-20T09:22:01;7.40;67.50
83289;DHT22;73193;50.866;5.420;2023-12-20T09:23:32;7.70;66.90
83289;DHT22;73193;50.866;5.420;2023-12-20T09:25:03;7.50;66.80
83289;DHT22;73193;50.866;5.420;2023-12-20T09:26:34;7.40;67.90
83289;DHT22;73193;50.866;5.420;2023-12-20T09:28:05;7.40;67.60
83289;DHT22;73193;50.866;5.420;2023-12-20T09:29:35;7.40;68.00
83289;DHT22;73193;50.866;5.420;2023-12-20T09:31:06;7.40;67.80
83289;DHT22;73193;50.866;5.420;2023-12-20T09:32:37;7.40;68.00
83289;DHT22;73193;50.866;5.420;2023-12-20T09:34:08;7.40;67.50
83289;DHT22;73193;50.866;5.420;2023-12-20T09:35:38;7.50;67.70
83289;DHT22;73193;50.866;5.420;2023-12-20T09:37:09;7.50;68.00
83289;DHT22;73193;50.866;5.420;2023-12-20T09:38:40;7.50;67.40
83289;DHT22;73193;50.866;5.420;2023-12-20T09:40:12;7.60;67.60
83289;DHT22;73193;50.866;5.420;2023-12-20T09:41:44;7.80;66.70
83289;DHT22;73193;50.866;5.420;2023-12-20T09:43:19;8.00;66.60